Axtell, NE

11:53 AM CDT on August 27, 2016 (GMT -0500)
Axtell, NE | | Change Station

Elev 2234 ft 40.48 °N, 99.08 °W | Updated 17 seconds ago

Clear
Clear
74.3 °F
Feels Like 74 °F
N
4.2
Wind Variable Wind from ENE
Gusts 4.9 mph

Today
High -- | Low -- °F
--% Chance of Precip.
Yesterday
High -- | Low -- °F
Precip. -- in
Pressure 30.07 in
Visibility 10.0 miles
Clouds Clear
Heat Index 74 °F
Dew Point 16 °F
Humidity 11%
Rainfall 0.09 in
Snow Depth Not available.
6:59 AM 8:15 PM
Waning Crescent, 23% visible
METAR KHDE 271635Z AUTO 10003KT 10SM CLR 22/15 A3007 RMK AO2 T02210149
Pressure 30.07 in
Visibility 10.0 miles
Clouds Clear
Heat Index 74 °F
Dew Point 16 °F
Humidity 11%
Rainfall 0.09 in
Snow Depth Not available.
6:59 AM 8:15 PM
Waning Crescent, 23% visible
METAR KHDE 271635Z AUTO 10003KT 10SM CLR 22/15 A3007 RMK AO2 T02210149

10-Day Weather Forecast

Almanac

Astronomy

Aug. 27, 2016 Rise Set
Actual Time
Civil Twilight
Nautical Twilight
Astronomical Twilight
Moon
Length of Visible Light
Length of Day
Tomorrow will be .
, % of the Moon is Illuminated

Today's Extremes

State Highs State Lows

Community

WunderPhotos

Upload Photos

1,935,377 photos uploaded!

WunderBlog® & News

Nearby

Air Quality

  Air Quality AQ Index Pollutant
Not available.

Snow Depth

Station Depth Elevation

Earthquake Activity

City Distance Mag. Time & Date
Minimum magnitude displayed is 2.5.

Coastal Water Temperatures

Place Temperature

Stations

Nearby Weather Stations

Station Location Temp. Windchill Dew Point Humidity Wind Precip. Elev Updated Type
                   

Watches & Warnings

There are currently no watches in effect.